Pago Pago, AS

8:47 PM SST on July 29, 2014 (GMT -1100)
Kona International At Keahole (PHKO) Elev 43 ft | 19.74 °N, 156.05 °W | Change Station
Active Advisory: Flash Flood Watch

Current weather conditions updated 54 minutes ago

Mostly Cloudy
Mostly Cloudy
81 °F
Feels Like 85 °F
N
5
Wind Variable Wind from WNW

Tomorrow is forecast to be Cooler than today. Rain.

Today
High -- | Low -- °F
--% Chance of Precip.
Yesterday
High -- | Low -- °F
Precip. -- in
6:45 AM 6:13 PM
Waxing Crescent, 10% visible
Pressure 30.00 in
Visibility 10.0 miles
Clouds Scattered Clouds 3500 ft
Mostly Cloudy 4300 ft
Heat Index 85 °F
Dew Point 71 °F
Humidity 72%
Rainfall 0.00 in
Snow Depth Not available.
UV 0 out of 12
Pollen Not available.
Air Quality Not available.
Flu Activity Not available.
METAR PHKO 300653Z 29004KT 10SM SCT035 BKN043 27/22 A2999 RMK AO2 SLP157 T02720217

More Conditions Fewer Conditions

Pressure 30.00 in
Visibility 10.0 miles
Clouds Scattered Clouds 3500 ft
Mostly Cloudy 4300 ft
Heat Index 85 °F
Dew Point 71 °F
Humidity 72%
Rainfall 0.00 in
Snow Depth Not available.
UV 0 out of 12
Pollen Not available.
Air Quality Not available.
Flu Activity Not available.
METAR PHKO 300653Z 29004KT 10SM SCT035 BKN043 27/22 A2999 RMK AO2 SLP157 T02720217

More Conditions Fewer Conditions

10-Day Weather Forecast

Almanac

Astronomy

Jul. 29, 2014 Rise Set
Actual Time 6:45 AM SST 6:13 PM SST
Civil Twilight 6:22 AM SST 6:35 PM SST
Nautical Twilight 5:56 AM SST 7:01 PM SST
Astronomical Twilight 5:31 AM SST 7:27 PM SST
Moon 8:31 AM SST (7/29) 8:43 PM SST (7/29)
Length of Visible Light 12h 13m
Length of Day
11h 28m
Tomorrow will be 0m 33s longer.
Waxing Crescent, 10% of the Moon is Illuminated
Jul 30
Waxing Crescent
Aug 3
First Quarter
Aug 10
Full
Aug 17
Last Quarter
Aug 25
New

Community

WunderPhotos

Upload Photos

1,739,022 photos uploaded!

WunderBlogs® & News

By Dr. Jeff Masters
Director of Meteorology, Weather Underground
By Kari Strenfel
Meteorologist, Weather Underground
By Christopher C. Burt
Weather Historian, Weather Underground
July 29, 2014
July 29, 2014
July 29, 2014

Nearby

Snow Depth

Station Depth Elevation
No new snow has been reported.

Earthquake Activity

City Distance Mag. Time & Date
No recent earthquake activity has been reported nearby.
Minimum magnitude displayed is 2.5.

Coastal Water Temperatures

Place Temperature
No Stations Reporting

Nearby Weather Stations

There are no personal weather stations in this area.